Time;durP1;ratioP1;P1;durP2;ratioP2;P2;SDS_P1;SDS_P2;PMS_P1;PMS_P2;Temp;Humidity;BMP_temperature;BMP_pressure;BME280_temperature;BME280_humidity;BME280_pressure;Samples;Min_cycle;Max_cycle;Signal;HPM_P1;HPM_P2
2023/01/12 00:01:30;;;;;;;15.98;3.63;;;;;;;;;;7393147;19;19999;-74
2023/01/12 00:03:56;;;;;;;7.40;2.70;;;;;;;;;;7391656;19;20062;-75
2023/01/12 00:06:22;;;;;;;8.75;2.17;;;;;;;;;;7390090;19;20060;-75
2023/01/12 00:08:48;;;;;;;7.15;1.98;;;;;;;;;;7392045;19;20020;-76
2023/01/12 00:11:16;;;;;;;11.57;3.83;;;;;;;;;;7389708;19;20649;-75
2023/01/12 00:13:41;;;;;;;13.05;3.05;;;;;;;;;;7391507;19;20050;-76
2023/01/12 00:18:57;;;;;;;7.63;2.33;;;;;;;;;;7393883;19;20040;-76
2023/01/12 00:21:22;;;;;;;7.00;2.25;;;;;;;;;;7393142;19;19999;-75
2023/01/12 00:23:48;;;;;;;13.02;2.60;;;;;;;;;;7391291;19;20023;-74
2023/01/12 00:26:13;;;;;;;12.07;2.58;;;;;;;;;;7390878;19;20002;-75
2023/01/12 00:28:38;;;;;;;8.23;2.75;;;;;;;;;;7392087;19;20009;-76
2023/01/12 00:31:08;;;;;;;11.15;2.28;;;;;;;;;;7392161;19;19998;-75
2023/01/12 00:33:35;;;;;;;11.85;2.92;;;;;;;;;;7391175;19;20479;-74
2023/01/12 00:36:05;;;;;;;5.40;2.03;;;;;;;;;;7389462;19;20180;-75
2023/01/12 00:38:32;;;;;;;5.40;2.65;;;;;;;;;;7392147;19;20480;-74
2023/01/12 00:41:03;;;;;;;12.15;2.45;;;;;;;;;;7392366;19;20022;-76
2023/01/12 00:46:12;;;;;;;10.93;2.53;;;;;;;;;;7390464;19;20098;-74
2023/01/12 00:48:40;;;;;;;9.07;2.30;;;;;;;;;;7391715;19;19990;-77
2023/01/12 00:51:05;;;;;;;7.55;2.45;;;;;;;;;;7391520;19;19994;-75
2023/01/12 00:53:30;;;;;;;9.82;2.28;;;;;;;;;;7391168;19;20008;-76
2023/01/12 00:56:03;;;;;;;11.93;2.63;;;;;;;;;;7394890;19;19998;-74
2023/01/12 00:58:29;;;;;;;9.35;1.90;;;;;;;;;;7391998;19;20010;-75
2023/01/12 01:01:02;;;;;;;12.30;2.30;;;;;;;;;;7392010;19;19995;-74
2023/01/12 01:03:27;;;;;;;14.05;2.42;;;;;;;;;;7390971;19;19994;-75
2023/01/12 01:06:00;;;;;;;14.02;2.40;;;;;;;;;;7390053;19;19990;-73
2023/01/12 01:08:26;;;;;;;9.05;2.22;;;;;;;;;;7390936;19;20101;-75
2023/01/12 01:11:10;;;;;;;8.50;2.10;;;;;;;;;;7390657;19;19994;-75
2023/01/12 01:13:36;;;;;;;11.05;2.33;;;;;;;;;;7390205;19;20374;-75
2023/01/12 01:16:03;;;;;;;6.03;1.92;;;;;;;;;;7389498;19;19994;-75
2023/01/12 01:18:30;;;;;;;17.30;2.85;;;;;;;;;;7390676;19;20005;-74
2023/01/12 01:20:56;;;;;;;6.90;2.40;;;;;;;;;;7390233;19;20002;-76
2023/01/12 01:23:23;;;;;;;8.57;2.40;;;;;;;;;;7389139;19;20037;-74
2023/01/12 01:25:48;;;;;;;12.82;2.50;;;;;;;;;;7389154;19;19995;-76
2023/01/12 01:28:17;;;;;;;13.73;2.83;;;;;;;;;;7390236;19;19991;-74
2023/01/12 01:30:43;;;;;;;16.77;2.42;;;;;;;;;;7389439;19;20015;-76
2023/01/12 01:33:08;;;;;;;9.45;2.38;;;;;;;;;;7389225;19;19999;-75
2023/01/12 01:35:37;;;;;;;7.05;2.20;;;;;;;;;;7389622;19;20021;-76
2023/01/12 01:38:03;;;;;;;14.27;2.85;;;;;;;;;;7388660;19;19987;-76
2023/01/12 01:40:28;;;;;;;11.40;2.20;;;;;;;;;;7390194;19;20015;-75
2023/01/12 01:42:54;;;;;;;11.02;2.75;;;;;;;;;;7388756;19;20113;-74
2023/01/12 01:45:20;;;;;;;7.22;1.65;;;;;;;;;;7389440;19;20001;-76
2023/01/12 01:47:50;;;;;;;7.30;2.00;;;;;;;;;;7389967;19;20007;-75
2023/01/12 01:50:21;;;;;;;12.03;2.00;;;;;;;;;;7388091;19;20005;-75
2023/01/12 01:52:56;;;;;;;10.85;2.08;;;;;;;;;;7388270;19;19998;-76
2023/01/12 01:55:25;;;;;;;3.65;1.70;;;;;;;;;;7389266;19;19995;-74
2023/01/12 01:57:56;;;;;;;6.35;2.00;;;;;;;;;;7390021;19;19991;-74
2023/01/12 02:00:22;;;;;;;9.60;2.03;;;;;;;;;;7389655;19;20003;-75
2023/01/12 02:02:48;;;;;;;5.75;1.95;;;;;;;;;;7388287;19;20001;-75
2023/01/12 02:05:17;;;;;;;10.82;2.30;;;;;;;;;;7387125;19;20054;-76
2023/01/12 02:07:43;;;;;;;6.00;1.75;;;;;;;;;;7389547;19;20003;-74
2023/01/12 02:10:09;;;;;;;6.90;1.77;;;;;;;;;;7386335;19;20305;-74
2023/01/12 02:18:35;;;;;;;11.55;2.03;;;;;;;;;;7389885;19;20024;-75
2023/01/12 02:21:32;;;;;;;15.15;2.30;;;;;;;;;;7389333;19;20326;-75
2023/01/12 02:24:06;;;;;;;9.23;1.52;;;;;;;;;;7387961;19;19999;-75
2023/01/12 02:27:02;;;;;;;7.45;1.75;;;;;;;;;;7387458;19;20011;-75
2023/01/12 02:29:45;;;;;;;13.45;2.55;;;;;;;;;;7387717;19;20045;-75
2023/01/12 02:32:16;;;;;;;9.30;1.70;;;;;;;;;;7388774;19;20086;-75
2023/01/12 02:34:44;;;;;;;8.55;2.25;;;;;;;;;;7392861;19;20002;-74
2023/01/12 02:37:42;;;;;;;12.00;2.53;;;;;;;;;;7396152;19;19999;-75
2023/01/12 02:40:28;;;;;;;6.57;2.35;;;;;;;;;;7396419;19;20033;-75
2023/01/12 02:43:07;;;;;;;10.07;2.00;;;;;;;;;;7402717;19;19995;-74
2023/01/12 02:45:48;;;;;;;12.85;2.03;;;;;;;;;;7396496;19;20494;-75
2023/01/12 02:48:22;;;;;;;9.95;2.25;;;;;;;;;;7397173;19;20001;-75
2023/01/12 02:50:56;;;;;;;9.05;2.50;;;;;;;;;;7395281;19;20473;-74
2023/01/12 02:53:29;;;;;;;10.27;2.42;;;;;;;;;;7395390;19;19995;-75
2023/01/12 02:55:58;;;;;;;9.30;1.88;;;;;;;;;;7393312;19;20536;-75
2023/01/12 02:58:26;;;;;;;8.43;2.55;;;;;;;;;;7398206;19;20050;-75
2023/01/12 03:00:54;;;;;;;10.63;1.75;;;;;;;;;;7393675;19;20473;-75
2023/01/12 03:03:20;;;;;;;15.48;2.10;;;;;;;;;;7393740;19;20002;-74
2023/01/12 03:05:46;;;;;;;14.50;1.73;;;;;;;;;;7392727;19;20021;-75
2023/01/12 03:08:20;;;;;;;7.47;2.25;;;;;;;;;;7399455;19;20484;-75
2023/01/12 03:11:13;;;;;;;7.22;1.63;;;;;;;;;;7396756;19;20007;-75
2023/01/12 03:13:45;;;;;;;11.18;2.15;;;;;;;;;;7393769;19;19991;-74
2023/01/12 03:16:14;;;;;;;5.90;1.83;;;;;;;;;;7393183;19;20347;-75
2023/01/12 03:18:48;;;;;;;14.77;2.20;;;;;;;;;;7393357;19;20003;-75
2023/01/12 03:21:23;;;;;;;7.00;2.00;;;;;;;;;;7394870;19;20019;-75
2023/01/12 03:24:04;;;;;;;7.70;1.77;;;;;;;;;;7393477;19;20074;-73
2023/01/12 03:26:31;;;;;;;12.15;2.33;;;;;;;;;;7392700;19;20480;-74
2023/01/12 03:29:12;;;;;;;9.77;1.75;;;;;;;;;;7393898;19;20469;-74
2023/01/12 03:31:37;;;;;;;10.10;1.90;;;;;;;;;;7396608;19;20051;-74
2023/01/12 03:34:03;;;;;;;9.90;1.80;;;;;;;;;;7393558;19;19991;-75
2023/01/12 03:37:02;;;;;;;8.73;1.77;;;;;;;;;;7392782;19;20483;-74
2023/01/12 03:39:57;;;;;;;11.20;2.45;;;;;;;;;;7394060;19;19999;-74
2023/01/12 03:42:28;;;;;;;14.48;2.10;;;;;;;;;;7393894;19;20491;-74
2023/01/12 03:45:31;;;;;;;10.13;2.20;;;;;;;;;;7389887;19;20006;-75
2023/01/12 03:48:17;;;;;;;9.68;1.65;;;;;;;;;;7394468;19;20068;-74
2023/01/12 03:50:49;;;;;;;7.38;1.70;;;;;;;;;;7393848;19;20035;-75
2023/01/12 03:53:20;;;;;;;10.73;2.20;;;;;;;;;;7392146;19;19991;-73
2023/01/12 03:55:48;;;;;;;15.67;2.47;;;;;;;;;;7392724;19;20054;-74
2023/01/12 03:58:14;;;;;;;11.82;2.17;;;;;;;;;;7393393;19;20250;-74
2023/01/12 04:00:40;;;;;;;7.85;1.85;;;;;;;;;;7394029;19;20007;-74
2023/01/12 04:03:11;;;;;;;9.45;1.92;;;;;;;;;;7391881;19;20024;-75
2023/01/12 04:05:36;;;;;;;8.55;2.00;;;;;;;;;;7391730;19;20001;-75
2023/01/12 04:08:01;;;;;;;9.98;2.28;;;;;;;;;;7393535;19;19991;-74
2023/01/12 04:10:27;;;;;;;15.75;2.28;;;;;;;;;;7391105;19;20014;-73
2023/01/12 04:12:52;;;;;;;6.95;1.75;;;;;;;;;;7392418;19;20441;-74
2023/01/12 04:15:17;;;;;;;10.73;2.25;;;;;;;;;;7392546;19;20006;-75
2023/01/12 04:17:43;;;;;;;9.63;2.30;;;;;;;;;;7391378;19;20018;-74
2023/01/12 04:20:09;;;;;;;7.47;1.85;;;;;;;;;;7392682;19;20006;-75
2023/01/12 04:22:44;;;;;;;11.68;1.88;;;;;;;;;;7390907;19;20003;-74
2023/01/12 04:25:15;;;;;;;12.27;1.50;;;;;;;;;;7393279;19;20058;-75
2023/01/12 04:27:45;;;;;;;6.47;1.35;;;;;;;;;;7392413;19;19999;-76
2023/01/12 04:30:11;;;;;;;3.10;1.33;;;;;;;;;;7391324;19;20541;-75
2023/01/12 04:32:36;;;;;;;10.75;3.13;;;;;;;;;;7390514;19;19999;-73
2023/01/12 04:35:02;;;;;;;8.95;1.88;;;;;;;;;;7391428;19;20035;-76
2023/01/12 04:37:30;;;;;;;12.13;1.90;;;;;;;;;;7392083;19;19995;-76
2023/01/12 04:39:56;;;;;;;12.70;1.95;;;;;;;;;;7392183;19;20444;-75
2023/01/12 04:45:05;;;;;;;4.50;1.40;;;;;;;;;;7391468;19;20019;-75
2023/01/12 04:47:32;;;;;;;10.38;2.35;;;;;;;;;;7391784;19;20003;-74
2023/01/12 04:49:58;;;;;;;8.00;1.70;;;;;;;;;;7389540;19;19994;-76
2023/01/12 04:52:23;;;;;;;11.65;1.88;;;;;;;;;;7391648;19;19990;-75
2023/01/12 04:54:48;;;;;;;8.60;1.70;;;;;;;;;;7390611;19;20061;-74
2023/01/12 04:57:14;;;;;;;9.32;1.70;;;;;;;;;;7389749;19;19999;-73
2023/01/12 04:59:39;;;;;;;7.05;2.33;;;;;;;;;;7395193;19;20361;-74
2023/01/12 05:02:04;;;;;;;4.03;1.60;;;;;;;;;;7395801;19;20436;-75
2023/01/12 05:04:30;;;;;;;12.27;1.75;;;;;;;;;;7389639;19;19995;-74
2023/01/12 05:06:55;;;;;;;12.00;1.77;;;;;;;;;;7391391;19;20024;-74
2023/01/12 05:12:04;;;;;;;13.82;2.50;;;;;;;;;;7391399;19;20016;-75
2023/01/12 05:14:30;;;;;;;11.45;1.85;;;;;;;;;;7389447;19;20003;-74
2023/01/12 05:16:55;;;;;;;7.95;2.08;;;;;;;;;;7390861;19;20005;-74
2023/01/12 05:19:20;;;;;;;7.95;2.40;;;;;;;;;;7390937;19;20009;-76
2023/01/12 05:21:46;;;;;;;9.95;2.30;;;;;;;;;;7390985;19;20080;-75
2023/01/12 05:24:11;;;;;;;12.20;1.98;;;;;;;;;;7389827;19;19998;-74
2023/01/12 05:26:36;;;;;;;10.07;2.10;;;;;;;;;;7389179;19;19994;-75
2023/01/12 05:29:01;;;;;;;5.70;1.50;;;;;;;;;;7389976;19;19995;-74
2023/01/12 05:31:27;;;;;;;8.93;1.73;;;;;;;;;;7391834;19;20492;-74
2023/01/12 05:33:52;;;;;;;11.27;2.03;;;;;;;;;;7387496;19;20015;-74
2023/01/12 05:36:19;;;;;;;6.38;1.40;;;;;;;;;;7390670;19;20012;-75
2023/01/12 05:38:44;;;;;;;5.05;1.45;;;;;;;;;;7390650;19;20054;-75
2023/01/12 05:41:11;;;;;;;5.65;1.55;;;;;;;;;;7393166;19;19999;-74
2023/01/12 05:43:49;;;;;;;3.50;1.27;;;;;;;;;;7393195;19;20002;-75
2023/01/12 05:46:17;;;;;;;4.53;1.30;;;;;;;;;;7391195;19;20441;-75
2023/01/12 05:48:43;;;;;;;14.77;2.50;;;;;;;;;;7392593;19;19987;-75
2023/01/12 05:51:10;;;;;;;10.88;1.80;;;;;;;;;;7393881;19;20029;-74
2023/01/12 05:53:35;;;;;;;9.57;1.50;;;;;;;;;;7392237;19;20001;-74
2023/01/12 05:56:07;;;;;;;5.22;1.38;;;;;;;;;;7391667;19;20437;-74
2023/01/12 05:58:32;;;;;;;7.32;1.52;;;;;;;;;;7393976;19;19998;-74
2023/01/12 06:00:58;;;;;;;7.57;1.73;;;;;;;;;;7394402;19;20485;-74
2023/01/12 06:03:23;;;;;;;6.15;1.35;;;;;;;;;;7388184;19;19987;-75
2023/01/12 06:05:57;;;;;;;6.05;1.70;;;;;;;;;;7386969;19;20006;-75
2023/01/12 06:08:22;;;;;;;10.05;1.88;;;;;;;;;;7378860;19;20007;-75
2023/01/12 06:10:48;;;;;;;8.05;1.55;;;;;;;;;;7360270;19;19991;-74
2023/01/12 06:16:17;;;;;;;2.85;1.27;;;;;;;;;;7387504;19;20008;-75
2023/01/12 06:18:42;;;;;;;9.57;1.65;;;;;;;;;;7392241;19;19998;-75
2023/01/12 06:21:09;;;;;;;7.22;1.90;;;;;;;;;;7393586;19;19999;-74
2023/01/12 06:23:34;;;;;;;6.35;1.60;;;;;;;;;;7395449;19;20070;-75
2023/01/12 06:26:00;;;;;;;3.97;1.23;;;;;;;;;;7394889;19;19999;-75
2023/01/12 06:28:27;;;;;;;8.05;1.27;;;;;;;;;;7392760;19;20460;-74
2023/01/12 06:31:03;;;;;;;9.10;1.83;;;;;;;;;;7392921;19;20013;-74
2023/01/12 06:33:29;;;;;;;11.35;2.30;;;;;;;;;;7394153;19;19999;-76
2023/01/12 06:35:55;;;;;;;9.38;1.60;;;;;;;;;;7391479;19;20358;-74
2023/01/12 06:38:22;;;;;;;9.10;2.05;;;;;;;;;;7394091;19;20001;-74
2023/01/12 06:40:48;;;;;;;8.18;1.90;;;;;;;;;;7395883;19;20396;-76
2023/01/12 06:43:14;;;;;;;6.85;2.15;;;;;;;;;;7393589;19;20491;-73
2023/01/12 06:45:39;;;;;;;11.52;2.80;;;;;;;;;;7394352;19;20058;-75
2023/01/12 06:48:05;;;;;;;9.35;2.10;;;;;;;;;;7387590;19;20535;-75
2023/01/12 06:50:32;;;;;;;8.30;2.00;;;;;;;;;;7392270;19;20329;-75
2023/01/12 06:52:59;;;;;;;7.22;2.03;;;;;;;;;;7393822;19;20314;-75
2023/01/12 06:55:24;;;;;;;6.78;1.70;;;;;;;;;;7393755;19;20019;-75
2023/01/12 06:57:50;;;;;;;10.68;2.50;;;;;;;;;;7395219;19;19990;-72
2023/01/12 07:00:15;;;;;;;13.00;2.53;;;;;;;;;;7394031;19;19991;-74
2023/01/12 07:02:40;;;;;;;9.43;2.20;;;;;;;;;;7391264;19;20381;-74
2023/01/12 07:05:06;;;;;;;9.68;1.80;;;;;;;;;;7392199;19;20004;-75
2023/01/12 07:07:31;;;;;;;9.25;2.25;;;;;;;;;;7394491;19;19995;-75
2023/01/12 07:09:57;;;;;;;9.35;2.10;;;;;;;;;;7392015;19;19999;-74
2023/01/12 07:12:22;;;;;;;7.85;1.98;;;;;;;;;;7391989;19;20468;-75
2023/01/12 07:14:48;;;;;;;12.20;2.42;;;;;;;;;;7391704;19;20315;-75
2023/01/12 07:17:16;;;;;;;9.55;2.10;;;;;;;;;;7391769;19;20025;-73
2023/01/12 07:19:42;;;;;;;11.77;2.65;;;;;;;;;;7392537;19;20678;-75
2023/01/12 07:22:07;;;;;;;5.00;1.75;;;;;;;;;;7395527;19;19998;-73
2023/01/12 07:24:33;;;;;;;4.82;1.30;;;;;;;;;;7380574;19;20509;-74
2023/01/12 07:26:58;;;;;;;9.93;1.88;;;;;;;;;;7394578;19;20002;-74
2023/01/12 07:29:24;;;;;;;4.57;1.75;;;;;;;;;;7390905;19;20002;-74
2023/01/12 07:31:49;;;;;;;7.38;1.70;;;;;;;;;;7393279;19;20390;-74
2023/01/12 07:34:18;;;;;;;6.65;1.58;;;;;;;;;;7390791;19;20006;-75
2023/01/12 07:36:46;;;;;;;5.25;1.45;;;;;;;;;;7392163;19;20013;-75
2023/01/12 07:39:12;;;;;;;7.00;2.25;;;;;;;;;;7390734;19;19998;-73
2023/01/12 07:44:21;;;;;;;5.28;1.60;;;;;;;;;;7392335;19;20155;-74
2023/01/12 07:46:46;;;;;;;5.25;1.90;;;;;;;;;;7390112;19;19995;-75
2023/01/12 07:49:11;;;;;;;9.25;1.75;;;;;;;;;;7387545;19;19995;-75
2023/01/12 07:51:37;;;;;;;5.35;1.63;;;;;;;;;;7391443;19;20002;-75
2023/01/12 07:54:02;;;;;;;4.20;1.38;;;;;;;;;;7392340;19;19999;-75
2023/01/12 07:56:28;;;;;;;5.47;1.55;;;;;;;;;;7389977;19;20062;-75
2023/01/12 07:58:53;;;;;;;6.57;1.42;;;;;;;;;;7391667;19;20067;-74
2023/01/12 08:01:18;;;;;;;7.30;1.58;;;;;;;;;;7392393;19;20015;-75
2023/01/12 08:03:44;;;;;;;6.57;1.75;;;;;;;;;;7392373;19;20492;-75
2023/01/12 08:06:09;;;;;;;4.78;1.20;;;;;;;;;;7389665;19;20339;-75
2023/01/12 08:08:35;;;;;;;9.35;1.73;;;;;;;;;;7390399;19;20461;-75
2023/01/12 08:11:06;;;;;;;7.38;1.77;;;;;;;;;;7390255;19;19994;-75
2023/01/12 08:13:32;;;;;;;10.35;3.40;;;;;;;;;;7390175;19;20009;-74
2023/01/12 08:16:04;;;;;;;7.50;2.55;;;;;;;;;;7390068;19;19994;-74
2023/01/12 08:18:34;;;;;;;8.07;2.25;;;;;;;;;;7391080;19;20006;-74
2023/01/12 08:21:02;;;;;;;10.48;1.83;;;;;;;;;;7391114;19;20425;-75
2023/01/12 08:23:36;;;;;;;7.25;1.30;;;;;;;;;;7389355;19;20357;-75
2023/01/12 08:26:05;;;;;;;5.25;1.77;;;;;;;;;;7383004;19;20003;-75
2023/01/12 08:28:35;;;;;;;4.80;1.33;;;;;;;;;;7386222;19;20006;-75
2023/01/12 08:31:01;;;;;;;3.03;1.25;;;;;;;;;;7387335;19;20002;-75
2023/01/12 08:33:27;;;;;;;3.78;1.52;;;;;;;;;;7385723;19;19991;-74
2023/01/12 08:35:52;;;;;;;4.05;1.25;;;;;;;;;;7389734;19;20001;-75
2023/01/12 08:38:18;;;;;;;2.65;1.17;;;;;;;;;;7388450;19;20457;-74
2023/01/12 08:46:12;;;;;;;5.35;1.25;;;;;;;;;;7387704;19;20042;-75
2023/01/12 08:48:38;;;;;;;0.93;0.60;;;;;;;;;;7387972;19;20006;-76
2023/01/12 08:51:05;;;;;;;0.82;0.73;;;;;;;;;;7387370;19;20002;-75
2023/01/12 08:53:31;;;;;;;3.55;1.00;;;;;;;;;;7386875;19;20078;-76
2023/01/12 08:55:56;;;;;;;2.63;1.05;;;;;;;;;;7387420;19;20016;-74
2023/01/12 08:58:21;;;;;;;2.58;0.70;;;;;;;;;;7387243;19;20054;-74
2023/01/12 09:00:47;;;;;;;3.03;0.80;;;;;;;;;;7386957;19;20373;-74
2023/01/12 09:03:13;;;;;;;1.38;0.60;;;;;;;;;;7387116;19;20321;-76
2023/01/12 09:05:38;;;;;;;2.10;0.95;;;;;;;;;;7387146;19;20002;-75
2023/01/12 09:08:03;;;;;;;1.42;0.70;;;;;;;;;;7387599;19;19995;-74
2023/01/12 09:10:29;;;;;;;2.38;1.00;;;;;;;;;;7383239;19;20540;-76
2023/01/12 09:13:02;;;;;;;0.80;0.65;;;;;;;;;;7383955;19;20468;-76
2023/01/12 09:15:33;;;;;;;7.40;1.38;;;;;;;;;;7388321;19;20002;-75
2023/01/12 09:18:02;;;;;;;1.42;0.73;;;;;;;;;;7386434;19;20010;-75
2023/01/12 09:20:35;;;;;;;1.88;1.05;;;;;;;;;;7386713;19;20397;-76
2023/01/12 09:23:27;;;;;;;1.95;0.95;;;;;;;;;;7382797;19;19999;-76
2023/01/12 09:26:01;;;;;;;3.70;1.20;;;;;;;;;;7387675;19;19999;-77
2023/01/12 09:28:33;;;;;;;2.90;0.88;;;;;;;;;;7385637;19;20006;-75
2023/01/12 09:31:18;;;;;;;3.47;1.38;;;;;;;;;;7385153;19;20010;-74
2023/01/12 09:33:56;;;;;;;3.90;1.20;;;;;;;;;;7384063;19;20461;-75
2023/01/12 09:39:21;;;;;;;3.22;1.08;;;;;;;;;;7383434;19;20002;-76
2023/01/12 09:47:55;;;;;;;2.20;1.13;;;;;;;;;;7395197;19;20027;-75
2023/01/12 09:50:27;;;;;;;4.87;1.30;;;;;;;;;;7393503;19;20003;-75
2023/01/12 09:53:02;;;;;;;1.63;0.85;;;;;;;;;;7392367;19;20005;-76
2023/01/12 09:55:40;;;;;;;2.70;0.93;;;;;;;;;;7393109;19;20086;-75
2023/01/12 09:58:14;;;;;;;2.10;0.80;;;;;;;;;;7395753;19;20009;-73
2023/01/12 10:00:39;;;;;;;3.95;1.13;;;;;;;;;;7392734;19;20007;-76
2023/01/12 10:03:30;;;;;;;3.50;0.98;;;;;;;;;;7391362;19;19995;-75
2023/01/12 10:05:59;;;;;;;3.22;0.90;;;;;;;;;;7393217;19;20053;-75
2023/01/12 10:08:38;;;;;;;1.08;0.68;;;;;;;;;;7394272;19;20480;-74
2023/01/12 10:11:27;;;;;;;3.75;1.10;;;;;;;;;;7392989;19;20003;-75
2023/01/12 10:14:06;;;;;;;1.13;0.65;;;;;;;;;;7389289;19;20064;-76
2023/01/12 10:17:10;;;;;;;6.35;1.52;;;;;;;;;;7391773;19;20496;-74
2023/01/12 10:19:59;;;;;;;2.10;1.20;;;;;;;;;;7392890;19;20369;-76
2023/01/12 10:22:38;;;;;;;2.22;0.85;;;;;;;;;;7393755;19;20013;-75
2023/01/12 10:25:28;;;;;;;3.92;0.88;;;;;;;;;;7392413;19;20021;-74
2023/01/12 10:27:56;;;;;;;2.38;1.10;;;;;;;;;;7393800;19;20014;-75
2023/01/12 10:30:35;;;;;;;1.45;1.10;;;;;;;;;;7391774;19;20019;-74
2023/01/12 10:33:08;;;;;;;2.58;1.13;;;;;;;;;;7390031;19;20002;-74
2023/01/12 10:35:33;;;;;;;3.20;1.05;;;;;;;;;;7392010;19;20443;-75
2023/01/12 10:37:59;;;;;;;2.30;0.63;;;;;;;;;;7393310;19;20002;-75
2023/01/12 10:40:31;;;;;;;1.25;0.75;;;;;;;;;;7393164;19;20314;-75
2023/01/12 10:43:18;;;;;;;2.38;0.80;;;;;;;;;;7387824;19;20003;-75
2023/01/12 10:46:00;;;;;;;0.88;0.73;;;;;;;;;;7391570;19;20002;-75
2023/01/12 10:48:26;;;;;;;3.25;1.00;;;;;;;;;;7393647;19;20425;-76
2023/01/12 10:51:02;;;;;;;5.07;1.20;;;;;;;;;;7385837;19;20039;-75
2023/01/12 10:53:50;;;;;;;2.28;0.85;;;;;;;;;;7390259;19;20014;-75
2023/01/12 10:56:24;;;;;;;2.95;1.00;;;;;;;;;;7386012;19;20122;-75
2023/01/12 10:59:15;;;;;;;1.98;0.63;;;;;;;;;;7387315;19;19998;-75
2023/01/12 11:01:59;;;;;;;;;;;;;;;;;;7391773;19;20014;-75
2023/01/12 11:04:27;;;;;;;1.13;0.65;;;;;;;;;;7382737;19;19919;-75
2023/01/12 11:07:01;;;;;;;0.40;0.40;;;;;;;;;;7389736;19;20070;-75
2023/01/12 11:09:29;;;;;;;2.15;0.95;;;;;;;;;;7389187;19;20011;-74
2023/01/12 11:11:56;;;;;;;0.85;0.82;;;;;;;;;;7393083;19;20438;-75
2023/01/12 11:14:31;;;;;;;1.05;0.70;;;;;;;;;;7387996;19;20031;-75
2023/01/12 11:17:20;;;;;;;0.82;0.82;;;;;;;;;;7390334;19;19998;-74
2023/01/12 11:19:47;;;;;;;2.78;0.90;;;;;;;;;;7391552;19;20391;-75
2023/01/12 11:22:24;;;;;;;1.55;0.75;;;;;;;;;;7389386;19;20395;-76
2023/01/12 11:25:20;;;;;;;3.30;1.10;;;;;;;;;;7388820;19;20006;-75
2023/01/12 11:27:57;;;;;;;2.80;1.52;;;;;;;;;;7391450;19;20007;-75
2023/01/12 11:30:29;;;;;;;2.28;0.80;;;;;;;;;;7389722;19;19999;-75
2023/01/12 11:33:03;;;;;;;3.25;0.95;;;;;;;;;;7390085;19;20010;-74
2023/01/12 11:35:43;;;;;;;0.75;0.60;;;;;;;;;;7390274;19;19999;-74
2023/01/12 11:38:21;;;;;;;0.50;0.50;;;;;;;;;;7392031;19;20019;-73
2023/01/12 11:40:48;;;;;;;2.45;0.75;;;;;;;;;;7389801;19;20076;-74
2023/01/12 11:46:14;;;;;;;3.95;1.08;;;;;;;;;;7391398;19;20034;-72
2023/01/12 11:49:00;;;;;;;2.72;0.82;;;;;;;;;;7390095;19;20006;-74
2023/01/12 11:51:26;;;;;;;1.13;0.68;;;;;;;;;;7391243;19;20006;-74
2023/01/12 11:53:52;;;;;;;3.30;0.77;;;;;;;;;;7389938;19;20070;-74
2023/01/12 11:56:35;;;;;;;1.63;0.73;;;;;;;;;;7387513;19;19999;-75
2023/01/12 11:59:25;;;;;;;0.57;0.40;;;;;;;;;;7390056;19;20096;-75
2023/01/12 12:02:18;;;;;;;1.67;1.00;;;;;;;;;;7390039;19;20062;-74
2023/01/12 12:05:14;;;;;;;0.60;0.43;;;;;;;;;;7386493;19;20010;-73
2023/01/12 12:07:57;;;;;;;1.85;0.50;;;;;;;;;;7385564;19;20015;-74
2023/01/12 12:10:42;;;;;;;2.15;0.60;;;;;;;;;;7384653;19;20563;-76
2023/01/12 12:13:34;;;;;;;1.60;1.15;;;;;;;;;;7390334;19;20019;-74
2023/01/12 12:16:18;;;;;;;;;;;;;;;;;;7386360;19;20005;-75
2023/01/12 12:19:07;;;;;;;0.63;0.55;;;;;;;;;;7387871;19;19943;-74
2023/01/12 12:21:48;;;;;;;0.40;0.38;;;;;;;;;;7389898;19;20023;-75
2023/01/12 12:24:23;;;;;;;1.15;0.70;;;;;;;;;;7386580;19;20054;-73
2023/01/12 12:27:02;;;;;;;0.47;0.32;;;;;;;;;;7389876;19;20006;-75
2023/01/12 12:29:35;;;;;;;1.00;0.50;;;;;;;;;;7388311;19;20002;-73
2023/01/12 12:32:22;;;;;;;0.40;0.40;;;;;;;;;;7389587;19;20464;-73
2023/01/12 12:34:49;;;;;;;0.60;0.60;;;;;;;;;;7388315;19;20028;-74
2023/01/12 12:37:25;;;;;;;0.35;0.35;;;;;;;;;;7389499;19;20007;-74
2023/01/12 12:40:04;;;;;;;0.93;0.65;;;;;;;;;;7390023;19;19998;-74
2023/01/12 12:45:37;;;;;;;1.15;0.77;;;;;;;;;;7388944;19;20024;-74
2023/01/12 12:48:14;;;;;;;1.70;0.40;;;;;;;;;;7388430;19;20002;-74
2023/01/12 12:51:01;;;;;;;2.30;0.60;;;;;;;;;;7388141;19;20002;-75
2023/01/12 12:53:40;;;;;;;0.93;0.52;;;;;;;;;;7389803;19;19999;-74
2023/01/12 12:56:10;;;;;;;0.40;0.40;;;;;;;;;;7387611;19;20032;-74
2023/01/12 12:58:40;;;;;;;1.40;0.50;;;;;;;;;;7388864;19;20024;-74
2023/01/12 13:01:21;;;;;;;1.30;0.60;;;;;;;;;;7386157;19;20337;-74
2023/01/12 13:03:49;;;;;;;1.65;0.70;;;;;;;;;;7386019;19;20090;-75
2023/01/12 13:06:38;;;;;;;0.65;0.65;;;;;;;;;;7381702;19;20551;-74
2023/01/12 13:09:10;;;;;;;1.77;0.60;;;;;;;;;;7384115;19;20015;-76
2023/01/12 13:11:59;;;;;;;3.40;0.70;;;;;;;;;;7387384;19;20020;-74
2023/01/12 13:14:32;;;;;;;1.35;0.40;;;;;;;;;;7384385;19;19994;-75
2023/01/12 13:16:59;;;;;;;2.03;0.63;;;;;;;;;;7387295;19;20001;-76
2023/01/12 13:19:36;;;;;;;0.45;0.45;;;;;;;;;;7387558;19;20536;-75
2023/01/12 13:22:41;;;;;;;0.68;0.63;;;;;;;;;;7390409;19;20069;-74
2023/01/12 13:25:10;;;;;;;0.50;0.50;;;;;;;;;;7387718;19;20005;-73
2023/01/12 13:27:59;;;;;;;0.85;0.80;;;;;;;;;;7388050;19;20009;-74
2023/01/12 13:30:25;;;;;;;1.83;0.85;;;;;;;;;;7386004;19;20009;-74
2023/01/12 13:32:59;;;;;;;0.88;0.68;;;;;;;;;;7386598;19;19991;-76
2023/01/12 13:35:47;;;;;;;0.60;0.60;;;;;;;;;;7385835;19;19994;-75
2023/01/12 13:38:20;;;;;;;1.80;0.57;;;;;;;;;;7384409;19;20004;-74
2023/01/12 13:40:46;;;;;;;0.50;0.40;;;;;;;;;;7385259;19;20516;-75
2023/01/12 13:43:21;;;;;;;1.27;0.75;;;;;;;;;;7384622;19;20006;-75
2023/01/12 13:45:56;;;;;;;0.70;0.35;;;;;;;;;;7387972;19;20010;-74
2023/01/12 13:48:23;;;;;;;0.60;0.60;;;;;;;;;;7384577;19;20063;-75
2023/01/12 13:51:11;;;;;;;0.80;0.60;;;;;;;;;;7384496;19;19991;-76
2023/01/12 13:53:36;;;;;;;0.47;0.38;;;;;;;;;;7385975;19;20006;-76
2023/01/12 13:56:05;;;;;;;0.65;0.50;;;;;;;;;;7383677;19;19998;-76
2023/01/12 13:58:37;;;;;;;2.20;0.68;;;;;;;;;;7381686;19;19999;-74
2023/01/12 14:01:04;;;;;;;0.40;0.40;;;;;;;;;;7383762;19;20062;-75
2023/01/12 14:03:39;;;;;;;1.58;0.88;;;;;;;;;;7367702;19;19999;-74
2023/01/12 14:06:13;;;;;;;1.70;0.35;;;;;;;;;;7380986;19;20024;-76
2023/01/12 14:08:41;;;;;;;1.35;0.65;;;;;;;;;;7385135;19;19998;-73
2023/01/12 14:11:25;;;;;;;0.68;0.55;;;;;;;;;;7387775;19;20410;-76
2023/01/12 14:19:55;;;;;;;0.47;0.45;;;;;;;;;;7386142;19;20010;-74
2023/01/12 14:22:21;;;;;;;0.52;0.52;;;;;;;;;;7384415;19;19999;-74
2023/01/12 14:24:46;;;;;;;0.52;0.50;;;;;;;;;;7385353;19;20473;-75
2023/01/12 14:27:20;;;;;;;0.43;0.40;;;;;;;;;;7386185;19;19995;-75
2023/01/12 14:29:46;;;;;;;0.45;0.43;;;;;;;;;;7386330;19;20006;-75
2023/01/12 14:32:12;;;;;;;0.38;0.32;;;;;;;;;;7393636;19;19995;-75
2023/01/12 14:34:40;;;;;;;1.23;0.60;;;;;;;;;;7391005;19;20573;-74
2023/01/12 14:37:23;;;;;;;0.63;0.63;;;;;;;;;;7394412;19;20004;-75
2023/01/12 14:39:49;;;;;;;0.80;0.50;;;;;;;;;;7390961;19;20062;-75
2023/01/12 14:48:28;;;;;;;0.60;0.60;;;;;;;;;;7391226;19;20002;-76
2023/01/12 14:51:17;;;;;;;0.50;0.50;;;;;;;;;;7388130;19;20541;-74
2023/01/12 14:53:45;;;;;;;0.77;0.70;;;;;;;;;;7390015;19;19999;-75
2023/01/12 14:56:21;;;;;;;4.53;1.90;;;;;;;;;;7390155;19;19991;-75
2023/01/12 14:58:47;;;;;;;1.55;1.00;;;;;;;;;;7392658;19;20006;-74
2023/01/12 15:01:28;;;;;;;1.73;0.63;;;;;;;;;;7389724;19;20461;-74
2023/01/12 15:03:54;;;;;;;0.98;0.73;;;;;;;;;;7389809;19;20002;-75
2023/01/12 15:06:19;;;;;;;0.50;0.50;;;;;;;;;;7384061;19;20001;-75
2023/01/12 15:08:54;;;;;;;0.80;0.52;;;;;;;;;;7389439;19;19998;-74
2023/01/12 15:11:34;;;;;;;0.75;0.70;;;;;;;;;;7389545;19;20031;-74
2023/01/12 15:14:01;;;;;;;0.85;0.70;;;;;;;;;;7387813;19;20383;-73
2023/01/12 15:27:25;;;;;;;1.42;0.60;;;;;;;;;;7391343;19;20015;-77
2023/01/12 15:29:50;;;;;;;0.75;0.60;;;;;;;;;;7387087;19;19999;-77
2023/01/12 15:32:35;;;;;;;0.75;0.63;;;;;;;;;;7390798;19;19999;-75
2023/01/12 15:35:09;;;;;;;0.50;0.50;;;;;;;;;;7390548;19;20002;-78
2023/01/12 15:37:35;;;;;;;0.50;0.50;;;;;;;;;;7396034;19;20083;-78
2023/01/12 15:40:00;;;;;;;0.80;0.80;;;;;;;;;;7395727;19;20006;-77
2023/01/12 15:42:26;;;;;;;1.17;0.80;;;;;;;;;;7390268;19;20335;-76
2023/01/12 15:44:52;;;;;;;0.90;0.80;;;;;;;;;;7387248;19;20013;-77
2023/01/12 15:47:19;;;;;;;1.15;0.85;;;;;;;;;;7388977;19;20059;-77
2023/01/12 15:49:46;;;;;;;0.68;0.57;;;;;;;;;;7385927;19;20086;-76
2023/01/12 15:52:13;;;;;;;1.95;1.30;;;;;;;;;;7388472;19;20038;-75
2023/01/12 15:54:39;;;;;;;2.47;1.40;;;;;;;;;;7379694;19;20061;-74
2023/01/12 15:57:04;;;;;;;1.83;1.10;;;;;;;;;;7385674;19;20035;-73
2023/01/12 15:59:30;;;;;;;1.00;0.90;;;;;;;;;;7380504;19;20024;-73
2023/01/12 16:01:55;;;;;;;0.50;0.50;;;;;;;;;;7383848;19;20002;-75
2023/01/12 16:04:22;;;;;;;1.40;0.80;;;;;;;;;;7383353;19;20006;-72
2023/01/12 16:06:49;;;;;;;1.00;0.82;;;;;;;;;;7385470;19;20027;-73
2023/01/12 16:09:14;;;;;;;1.05;0.90;;;;;;;;;;7383625;19;20029;-74
2023/01/12 16:11:41;;;;;;;1.02;0.82;;;;;;;;;;7383828;19;20007;-75